sensor_id;sensor_type;location;lat;lon;timestamp;temperature;humidity
16271;DHT22;8243;49.048;8.396;2023-05-07T00:01:28;13.20;99.90
16271;DHT22;8243;49.048;8.396;2023-05-07T00:03:54;13.10;99.90
16271;DHT22;8243;49.048;8.396;2023-05-07T00:06:19;13.10;99.90
16271;DHT22;8243;49.048;8.396;2023-05-07T00:08:45;13.00;99.90
16271;DHT22;8243;49.048;8.396;2023-05-07T00:11:11;13.00;99.90
16271;DHT22;8243;49.048;8.396;2023-05-07T00:13:37;12.80;99.90
16271;DHT22;8243;49.048;8.396;2023-05-07T00:16:04;12.70;99.90
16271;DHT22;8243;49.048;8.396;2023-05-07T00:18:30;12.70;99.90
16271;DHT22;8243;49.048;8.396;2023-05-07T00:20:56;12.70;99.90
16271;DHT22;8243;49.048;8.396;2023-05-07T00:23:22;12.70;99.90
16271;DHT22;8243;49.048;8.396;2023-05-07T00:25:47;12.80;99.90
16271;DHT22;8243;49.048;8.396;2023-05-07T00:28:13;12.70;99.90
16271;DHT22;8243;49.048;8.396;2023-05-07T00:30:39;12.70;99.90
16271;DHT22;8243;49.048;8.396;2023-05-07T00:33:04;12.70;99.90
16271;DHT22;8243;49.048;8.396;2023-05-07T00:35:31;12.80;99.90
16271;DHT22;8243;49.048;8.396;2023-05-07T00:37:57;12.90;99.90
16271;DHT22;8243;49.048;8.396;2023-05-07T00:40:23;12.90;99.90
16271;DHT22;8243;49.048;8.396;2023-05-07T00:42:49;12.90;99.90
16271;DHT22;8243;49.048;8.396;2023-05-07T00:45:15;12.90;99.90
16271;DHT22;8243;49.048;8.396;2023-05-07T00:47:43;12.80;99.90
16271;DHT22;8243;49.048;8.396;2023-05-07T00:50:09;12.70;99.90
16271;DHT22;8243;49.048;8.396;2023-05-07T00:52:36;12.80;99.90
16271;DHT22;8243;49.048;8.396;2023-05-07T00:55:06;12.70;99.90
16271;DHT22;8243;49.048;8.396;2023-05-07T00:57:36;12.70;99.90
16271;DHT22;8243;49.048;8.396;2023-05-07T01:00:04;12.70;99.90
16271;DHT22;8243;49.048;8.396;2023-05-07T01:02:30;12.70;99.90
16271;DHT22;8243;49.048;8.396;2023-05-07T01:04:56;12.70;99.90
16271;DHT22;8243;49.048;8.396;2023-05-07T01:07:22;12.70;99.90
16271;DHT22;8243;49.048;8.396;2023-05-07T01:09:49;12.70;99.90
16271;DHT22;8243;49.048;8.396;2023-05-07T01:12:15;12.60;99.90
16271;DHT22;8243;49.048;8.396;2023-05-07T01:14:41;12.70;99.90
16271;DHT22;8243;49.048;8.396;2023-05-07T01:17:07;12.60;99.90
16271;DHT22;8243;49.048;8.396;2023-05-07T01:19:34;12.60;99.90
16271;DHT22;8243;49.048;8.396;2023-05-07T01:22:08;12.60;99.90
16271;DHT22;8243;49.048;8.396;2023-05-07T01:24:35;12.60;99.90
16271;DHT22;8243;49.048;8.396;2023-05-07T01:27:01;12.80;99.90
16271;DHT22;8243;49.048;8.396;2023-05-07T01:29:28;12.80;99.90
16271;DHT22;8243;49.048;8.396;2023-05-07T01:31:59;12.70;99.90
16271;DHT22;8243;49.048;8.396;2023-05-07T01:34:30;12.60;99.90
16271;DHT22;8243;49.048;8.396;2023-05-07T01:36:58;12.50;99.90
16271;DHT22;8243;49.048;8.396;2023-05-07T01:39:25;12.50;99.90
16271;DHT22;8243;49.048;8.396;2023-05-07T01:41:57;12.60;99.90
16271;DHT22;8243;49.048;8.396;2023-05-07T01:44:25;12.70;99.90
16271;DHT22;8243;49.048;8.396;2023-05-07T01:46:51;12.60;99.90
16271;DHT22;8243;49.048;8.396;2023-05-07T01:49:17;12.60;99.90
16271;DHT22;8243;49.048;8.396;2023-05-07T01:51:45;12.60;99.90
16271;DHT22;8243;49.048;8.396;2023-05-07T01:54:10;12.60;99.90
16271;DHT22;8243;49.048;8.396;2023-05-07T01:56:36;12.50;99.90
16271;DHT22;8243;49.048;8.396;2023-05-07T01:59:01;12.40;99.90
16271;DHT22;8243;49.048;8.396;2023-05-07T02:01:28;12.30;99.90
16271;DHT22;8243;49.048;8.396;2023-05-07T02:03:55;12.30;99.90
16271;DHT22;8243;49.048;8.396;2023-05-07T02:06:20;12.30;99.90
16271;DHT22;8243;49.048;8.396;2023-05-07T02:08:47;12.40;99.90
16271;DHT22;8243;49.048;8.396;2023-05-07T02:11:13;12.40;99.90
16271;DHT22;8243;49.048;8.396;2023-05-07T02:13:39;12.40;99.90
16271;DHT22;8243;49.048;8.396;2023-05-07T02:16:05;12.40;99.90
16271;DHT22;8243;49.048;8.396;2023-05-07T02:18:31;12.40;99.90
16271;DHT22;8243;49.048;8.396;2023-05-07T02:20:57;12.40;99.90
16271;DHT22;8243;49.048;8.396;2023-05-07T02:23:23;12.50;99.90
16271;DHT22;8243;49.048;8.396;2023-05-07T02:25:48;12.50;99.90
16271;DHT22;8243;49.048;8.396;2023-05-07T02:28:14;12.60;99.90
16271;DHT22;8243;49.048;8.396;2023-05-07T02:30:40;12.40;99.90
16271;DHT22;8243;49.048;8.396;2023-05-07T02:33:06;12.40;99.90
16271;DHT22;8243;49.048;8.396;2023-05-07T02:35:33;12.40;99.90
16271;DHT22;8243;49.048;8.396;2023-05-07T02:37:59;12.40;99.90
16271;DHT22;8243;49.048;8.396;2023-05-07T02:40:24;12.30;99.90
16271;DHT22;8243;49.048;8.396;2023-05-07T02:42:50;12.20;99.90
16271;DHT22;8243;49.048;8.396;2023-05-07T02:45:15;12.10;99.90
16271;DHT22;8243;49.048;8.396;2023-05-07T02:47:41;12.00;99.90
16271;DHT22;8243;49.048;8.396;2023-05-07T02:50:07;11.90;99.90
16271;DHT22;8243;49.048;8.396;2023-05-07T02:52:33;11.90;99.90
16271;DHT22;8243;49.048;8.396;2023-05-07T02:54:58;11.90;99.90
16271;DHT22;8243;49.048;8.396;2023-05-07T02:57:24;11.90;99.90
16271;DHT22;8243;49.048;8.396;2023-05-07T02:59:49;12.00;99.90
16271;DHT22;8243;49.048;8.396;2023-05-07T03:02:16;12.00;99.90
16271;DHT22;8243;49.048;8.396;2023-05-07T03:04:41;12.00;99.90
16271;DHT22;8243;49.048;8.396;2023-05-07T03:07:07;12.00;99.90
16271;DHT22;8243;49.048;8.396;2023-05-07T03:09:33;12.00;99.90
16271;DHT22;8243;49.048;8.396;2023-05-07T03:11:59;12.00;99.90
16271;DHT22;8243;49.048;8.396;2023-05-07T03:14:24;12.00;99.90
16271;DHT22;8243;49.048;8.396;2023-05-07T03:16:50;12.00;99.90
16271;DHT22;8243;49.048;8.396;2023-05-07T03:19:16;12.00;99.90
16271;DHT22;8243;49.048;8.396;2023-05-07T03:21:42;12.00;99.90
16271;DHT22;8243;49.048;8.396;2023-05-07T03:24:08;12.00;99.90
16271;DHT22;8243;49.048;8.396;2023-05-07T03:26:33;12.00;99.90
16271;DHT22;8243;49.048;8.396;2023-05-07T03:28:59;11.90;99.90
16271;DHT22;8243;49.048;8.396;2023-05-07T03:31:25;11.90;99.90
16271;DHT22;8243;49.048;8.396;2023-05-07T03:33:55;11.90;99.90
16271;DHT22;8243;49.048;8.396;2023-05-07T03:36:21;11.90;99.90
16271;DHT22;8243;49.048;8.396;2023-05-07T03:38:48;11.90;99.90
16271;DHT22;8243;49.048;8.396;2023-05-07T03:41:14;11.90;99.90
16271;DHT22;8243;49.048;8.396;2023-05-07T03:43:39;11.90;99.90
16271;DHT22;8243;49.048;8.396;2023-05-07T03:46:05;11.90;99.90
16271;DHT22;8243;49.048;8.396;2023-05-07T03:48:31;11.80;99.90
16271;DHT22;8243;49.048;8.396;2023-05-07T03:51:00;11.90;99.90
16271;DHT22;8243;49.048;8.396;2023-05-07T03:53:25;11.90;99.90
16271;DHT22;8243;49.048;8.396;2023-05-07T03:55:51;12.00;99.90
16271;DHT22;8243;49.048;8.396;2023-05-07T03:58:16;12.00;99.90
16271;DHT22;8243;49.048;8.396;2023-05-07T04:00:42;12.00;99.90
16271;DHT22;8243;49.048;8.396;2023-05-07T04:03:08;12.00;99.90
16271;DHT22;8243;49.048;8.396;2023-05-07T04:05:34;11.90;99.90
16271;DHT22;8243;49.048;8.396;2023-05-07T04:08:00;11.90;99.90
16271;DHT22;8243;49.048;8.396;2023-05-07T04:10:26;11.90;99.90
16271;DHT22;8243;49.048;8.396;2023-05-07T04:12:53;11.90;99.90
16271;DHT22;8243;49.048;8.396;2023-05-07T04:15:19;12.00;99.90
16271;DHT22;8243;49.048;8.396;2023-05-07T04:17:45;12.00;99.90
16271;DHT22;8243;49.048;8.396;2023-05-07T04:20:14;12.10;99.90
16271;DHT22;8243;49.048;8.396;2023-05-07T04:22:40;12.20;99.90
16271;DHT22;8243;49.048;8.396;2023-05-07T04:25:07;12.20;99.90
16271;DHT22;8243;49.048;8.396;2023-05-07T04:27:34;12.20;99.90
16271;DHT22;8243;49.048;8.396;2023-05-07T04:30:01;12.30;99.90
16271;DHT22;8243;49.048;8.396;2023-05-07T04:32:29;12.30;99.90
16271;DHT22;8243;49.048;8.396;2023-05-07T04:34:56;12.30;99.90
16271;DHT22;8243;49.048;8.396;2023-05-07T04:37:22;12.40;99.90
16271;DHT22;8243;49.048;8.396;2023-05-07T04:39:47;12.40;99.90
16271;DHT22;8243;49.048;8.396;2023-05-07T04:42:17;12.50;99.90
16271;DHT22;8243;49.048;8.396;2023-05-07T04:44:44;12.50;99.90
16271;DHT22;8243;49.048;8.396;2023-05-07T04:47:09;12.70;99.90
16271;DHT22;8243;49.048;8.396;2023-05-07T04:49:36;12.80;99.90
16271;DHT22;8243;49.048;8.396;2023-05-07T04:52:01;12.90;99.90
16271;DHT22;8243;49.048;8.396;2023-05-07T04:54:29;13.00;99.90
16271;DHT22;8243;49.048;8.396;2023-05-07T04:56:56;13.10;99.90
16271;DHT22;8243;49.048;8.396;2023-05-07T04:59:21;13.10;99.90
16271;DHT22;8243;49.048;8.396;2023-05-07T05:01:47;13.10;99.90
16271;DHT22;8243;49.048;8.396;2023-05-07T05:04:13;13.20;99.90
16271;DHT22;8243;49.048;8.396;2023-05-07T05:06:39;13.20;99.90
16271;DHT22;8243;49.048;8.396;2023-05-07T05:09:05;13.20;99.90
16271;DHT22;8243;49.048;8.396;2023-05-07T05:11:31;13.30;99.90
16271;DHT22;8243;49.048;8.396;2023-05-07T05:13:58;13.30;99.90
16271;DHT22;8243;49.048;8.396;2023-05-07T05:16:27;13.40;99.90
16271;DHT22;8243;49.048;8.396;2023-05-07T05:18:53;13.70;99.90
16271;DHT22;8243;49.048;8.396;2023-05-07T05:21:20;13.90;99.90
16271;DHT22;8243;49.048;8.396;2023-05-07T05:23:47;13.90;99.90
16271;DHT22;8243;49.048;8.396;2023-05-07T05:26:12;14.10;99.90
16271;DHT22;8243;49.048;8.396;2023-05-07T05:28:38;14.40;99.90
16271;DHT22;8243;49.048;8.396;2023-05-07T05:31:05;14.70;99.90
16271;DHT22;8243;49.048;8.396;2023-05-07T05:33:31;15.60;99.90
16271;DHT22;8243;49.048;8.396;2023-05-07T05:35:56;16.80;99.90
16271;DHT22;8243;49.048;8.396;2023-05-07T05:38:22;17.80;99.90
16271;DHT22;8243;49.048;8.396;2023-05-07T05:40:47;18.30;99.90
16271;DHT22;8243;49.048;8.396;2023-05-07T05:43:14;18.40;98.10
16271;DHT22;8243;49.048;8.396;2023-05-07T05:45:41;18.30;95.50
16271;DHT22;8243;49.048;8.396;2023-05-07T05:48:06;17.80;93.80
16271;DHT22;8243;49.048;8.396;2023-05-07T05:50:33;17.50;93.00
16271;DHT22;8243;49.048;8.396;2023-05-07T05:53:01;17.20;92.90
16271;DHT22;8243;49.048;8.396;2023-05-07T05:55:26;16.90;92.60
16271;DHT22;8243;49.048;8.396;2023-05-07T05:57:52;17.10;91.60
16271;DHT22;8243;49.048;8.396;2023-05-07T06:00:17;17.20;90.50
16271;DHT22;8243;49.048;8.396;2023-05-07T06:02:44;17.40;88.10
16271;DHT22;8243;49.048;8.396;2023-05-07T06:05:09;17.40;87.80
16271;DHT22;8243;49.048;8.396;2023-05-07T06:07:35;17.70;83.50
16271;DHT22;8243;49.048;8.396;2023-05-07T06:10:01;17.70;80.10
16271;DHT22;8243;49.048;8.396;2023-05-07T06:12:27;17.60;80.00
16271;DHT22;8243;49.048;8.396;2023-05-07T06:14:52;17.80;78.10
16271;DHT22;8243;49.048;8.396;2023-05-07T06:17:21;18.20;75.30
16271;DHT22;8243;49.048;8.396;2023-05-07T06:19:47;18.70;70.30
16271;DHT22;8243;49.048;8.396;2023-05-07T06:22:12;19.10;68.20
16271;DHT22;8243;49.048;8.396;2023-05-07T06:24:38;19.70;59.10
16271;DHT22;8243;49.048;8.396;2023-05-07T06:27:04;19.80;56.60
16271;DHT22;8243;49.048;8.396;2023-05-07T06:29:30;19.80;53.60
16271;DHT22;8243;49.048;8.396;2023-05-07T06:32:06;19.20;54.40
16271;DHT22;8243;49.048;8.396;2023-05-07T06:34:33;19.30;55.00
16271;DHT22;8243;49.048;8.396;2023-05-07T06:36:58;19.30;52.40
16271;DHT22;8243;49.048;8.396;2023-05-07T06:39:24;19.40;52.40
16271;DHT22;8243;49.048;8.396;2023-05-07T06:41:49;19.70;48.80
16271;DHT22;8243;49.048;8.396;2023-05-07T06:44:15;19.60;49.60
16271;DHT22;8243;49.048;8.396;2023-05-07T06:46:41;19.80;46.90
16271;DHT22;8243;49.048;8.396;2023-05-07T06:49:07;20.20;46.70
16271;DHT22;8243;49.048;8.396;2023-05-07T06:51:33;20.50;41.00
16271;DHT22;8243;49.048;8.396;2023-05-07T06:53:59;20.10;42.30
16271;DHT22;8243;49.048;8.396;2023-05-07T06:56:25;19.80;42.90
16271;DHT22;8243;49.048;8.396;2023-05-07T06:58:51;19.90;41.70
16271;DHT22;8243;49.048;8.396;2023-05-07T07:01:17;20.30;41.10
16271;DHT22;8243;49.048;8.396;2023-05-07T07:03:43;21.20;37.30
16271;DHT22;8243;49.048;8.396;2023-05-07T07:06:08;22.20;30.70
16271;DHT22;8243;49.048;8.396;2023-05-07T07:08:34;23.20;27.20
16271;DHT22;8243;49.048;8.396;2023-05-07T07:11:00;23.40;25.70
16271;DHT22;8243;49.048;8.396;2023-05-07T07:13:25;23.90;24.40
16271;DHT22;8243;49.048;8.396;2023-05-07T07:15:52;24.40;21.00
16271;DHT22;8243;49.048;8.396;2023-05-07T07:18:18;24.10;20.10
16271;DHT22;8243;49.048;8.396;2023-05-07T07:20:44;23.30;20.80
16271;DHT22;8243;49.048;8.396;2023-05-07T07:23:10;22.90;19.90
16271;DHT22;8243;49.048;8.396;2023-05-07T07:25:35;23.30;19.70
16271;DHT22;8243;49.048;8.396;2023-05-07T07:28:01;23.70;18.70
16271;DHT22;8243;49.048;8.396;2023-05-07T07:30:27;24.20;18.50
16271;DHT22;8243;49.048;8.396;2023-05-07T07:32:53;24.90;16.80
16271;DHT22;8243;49.048;8.396;2023-05-07T07:35:19;24.70;16.80
16271;DHT22;8243;49.048;8.396;2023-05-07T07:37:44;24.60;16.70
16271;DHT22;8243;49.048;8.396;2023-05-07T07:40:11;23.70;18.60
16271;DHT22;8243;49.048;8.396;2023-05-07T07:42:37;24.20;17.00
16271;DHT22;8243;49.048;8.396;2023-05-07T07:45:03;24.80;15.70
16271;DHT22;8243;49.048;8.396;2023-05-07T07:47:29;25.20;15.50
16271;DHT22;8243;49.048;8.396;2023-05-07T07:49:59;25.30;14.00
16271;DHT22;8243;49.048;8.396;2023-05-07T07:52:24;25.80;14.30
16271;DHT22;8243;49.048;8.396;2023-05-07T07:54:50;26.80;12.60
16271;DHT22;8243;49.048;8.396;2023-05-07T07:57:16;27.80;11.60
16271;DHT22;8243;49.048;8.396;2023-05-07T07:59:41;28.80;9.30
16271;DHT22;8243;49.048;8.396;2023-05-07T08:02:08;28.30;9.60
16271;DHT22;8243;49.048;8.396;2023-05-07T08:04:34;29.50;7.80
16271;DHT22;8243;49.048;8.396;2023-05-07T08:07:00;29.80;7.00
16271;DHT22;8243;49.048;8.396;2023-05-07T08:09:26;29.70;6.80
16271;DHT22;8243;49.048;8.396;2023-05-07T08:11:52;29.90;6.20
16271;DHT22;8243;49.048;8.396;2023-05-07T08:14:18;29.30;6.60
16271;DHT22;8243;49.048;8.396;2023-05-07T08:16:43;29.20;7.50
16271;DHT22;8243;49.048;8.396;2023-05-07T08:19:09;29.50;7.00
16271;DHT22;8243;49.048;8.396;2023-05-07T08:21:39;30.00;6.30
16271;DHT22;8243;49.048;8.396;2023-05-07T08:24:05;29.70;7.10
16271;DHT22;8243;49.048;8.396;2023-05-07T08:26:31;29.70;6.70
16271;DHT22;8243;49.048;8.396;2023-05-07T08:28:56;29.80;6.90
16271;DHT22;8243;49.048;8.396;2023-05-07T08:31:22;29.70;6.60
16271;DHT22;8243;49.048;8.396;2023-05-07T08:33:48;29.50;6.80
16271;DHT22;8243;49.048;8.396;2023-05-07T08:36:15;30.10;6.60
16271;DHT22;8243;49.048;8.396;2023-05-07T08:38:40;30.50;6.10
16271;DHT22;8243;49.048;8.396;2023-05-07T08:41:10;30.30;5.70
16271;DHT22;8243;49.048;8.396;2023-05-07T08:43:36;30.30;6.00
16271;DHT22;8243;49.048;8.396;2023-05-07T08:46:04;30.20;6.00
16271;DHT22;8243;49.048;8.396;2023-05-07T08:48:31;30.60;6.30
16271;DHT22;8243;49.048;8.396;2023-05-07T08:50:58;30.80;5.20
16271;DHT22;8243;49.048;8.396;2023-05-07T08:53:24;30.00;5.60
16271;DHT22;8243;49.048;8.396;2023-05-07T08:55:51;30.30;6.00
16271;DHT22;8243;49.048;8.396;2023-05-07T08:58:19;30.80;5.20
16271;DHT22;8243;49.048;8.396;2023-05-07T09:00:46;30.90;5.30
16271;DHT22;8243;49.048;8.396;2023-05-07T09:03:12;30.00;5.60
16271;DHT22;8243;49.048;8.396;2023-05-07T09:05:39;30.10;6.30
16271;DHT22;8243;49.048;8.396;2023-05-07T09:08:08;30.70;5.80
16271;DHT22;8243;49.048;8.396;2023-05-07T09:10:34;31.00;4.40
16271;DHT22;8243;49.048;8.396;2023-05-07T09:12:59;31.00;5.00
16271;DHT22;8243;49.048;8.396;2023-05-07T09:15:28;29.70;6.60
16271;DHT22;8243;49.048;8.396;2023-05-07T09:17:58;29.90;6.20
16271;DHT22;8243;49.048;8.396;2023-05-07T09:20:24;29.70;6.50
16271;DHT22;8243;49.048;8.396;2023-05-07T09:22:50;30.50;5.90
16271;DHT22;8243;49.048;8.396;2023-05-07T09:25:28;30.70;5.40
16271;DHT22;8243;49.048;8.396;2023-05-07T09:27:53;31.40;4.90
16271;DHT22;8243;49.048;8.396;2023-05-07T09:30:19;31.70;3.60
16271;DHT22;8243;49.048;8.396;2023-05-07T09:32:44;31.30;4.50
16271;DHT22;8243;49.048;8.396;2023-05-07T09:35:17;31.40;4.30
16271;DHT22;8243;49.048;8.396;2023-05-07T09:37:43;31.80;3.60
16271;DHT22;8243;49.048;8.396;2023-05-07T09:40:23;31.20;3.70
16271;DHT22;8243;49.048;8.396;2023-05-07T09:42:50;29.50;5.40
16271;DHT22;8243;49.048;8.396;2023-05-07T09:45:21;28.40;7.30
16271;DHT22;8243;49.048;8.396;2023-05-07T09:47:49;29.00;7.70
16271;DHT22;8243;49.048;8.396;2023-05-07T09:50:16;29.20;7.00
16271;DHT22;8243;49.048;8.396;2023-05-07T09:52:42;29.40;6.40
16271;DHT22;8243;49.048;8.396;2023-05-07T09:55:09;30.30;5.00
16271;DHT22;8243;49.048;8.396;2023-05-07T09:57:36;30.50;5.70
16271;DHT22;8243;49.048;8.396;2023-05-07T10:00:03;30.40;5.60
16271;DHT22;8243;49.048;8.396;2023-05-07T10:02:34;30.20;6.20
16271;DHT22;8243;49.048;8.396;2023-05-07T10:05:00;29.90;6.60
16271;DHT22;8243;49.048;8.396;2023-05-07T10:07:27;29.50;6.90
16271;DHT22;8243;49.048;8.396;2023-05-07T10:09:54;30.00;6.40
16271;DHT22;8243;49.048;8.396;2023-05-07T10:12:20;30.60;5.60
16271;DHT22;8243;49.048;8.396;2023-05-07T10:14:46;29.10;7.30
16271;DHT22;8243;49.048;8.396;2023-05-07T10:17:13;29.10;7.40
16271;DHT22;8243;49.048;8.396;2023-05-07T10:19:44;29.30;7.30
16271;DHT22;8243;49.048;8.396;2023-05-07T10:22:10;29.50;6.80
16271;DHT22;8243;49.048;8.396;2023-05-07T10:24:36;30.00;7.00
16271;DHT22;8243;49.048;8.396;2023-05-07T10:27:07;29.90;6.50
16271;DHT22;8243;49.048;8.396;2023-05-07T10:29:44;29.80;6.40
16271;DHT22;8243;49.048;8.396;2023-05-07T10:34:41;27.70;8.90
16271;DHT22;8243;49.048;8.396;2023-05-07T10:37:10;27.90;9.50
16271;DHT22;8243;49.048;8.396;2023-05-07T10:39:37;27.60;10.20
16271;DHT22;8243;49.048;8.396;2023-05-07T10:42:14;27.70;9.80
16271;DHT22;8243;49.048;8.396;2023-05-07T10:44:40;28.10;9.90
16271;DHT22;8243;49.048;8.396;2023-05-07T10:47:13;28.40;9.50
16271;DHT22;8243;49.048;8.396;2023-05-07T10:52:24;29.20;8.90
16271;DHT22;8243;49.048;8.396;2023-05-07T10:57:46;28.10;9.00
16271;DHT22;8243;49.048;8.396;2023-05-07T11:05:26;28.30;9.50
16271;DHT22;8243;49.048;8.396;2023-05-07T11:08:00;28.40;9.30
16271;DHT22;8243;49.048;8.396;2023-05-07T11:10:51;28.30;9.80
16271;DHT22;8243;49.048;8.396;2023-05-07T11:13:17;28.40;9.30
16271;DHT22;8243;49.048;8.396;2023-05-07T11:15:46;28.10;9.30
16271;DHT22;8243;49.048;8.396;2023-05-07T11:18:16;28.10;9.30
16271;DHT22;8243;49.048;8.396;2023-05-07T11:26:07;28.30;9.10
16271;DHT22;8243;49.048;8.396;2023-05-07T11:28:42;28.10;9.50
16271;DHT22;8243;49.048;8.396;2023-05-07T11:31:08;28.20;9.30
16271;DHT22;8243;49.048;8.396;2023-05-07T11:33:35;28.00;10.20
16271;DHT22;8243;49.048;8.396;2023-05-07T11:36:03;28.30;9.90
16271;DHT22;8243;49.048;8.396;2023-05-07T11:38:38;28.40;9.30
16271;DHT22;8243;49.048;8.396;2023-05-07T11:41:05;28.70;9.30
16271;DHT22;8243;49.048;8.396;2023-05-07T11:43:32;29.00;8.90
16271;DHT22;8243;49.048;8.396;2023-05-07T11:46:11;28.40;8.70
16271;DHT22;8243;49.048;8.396;2023-05-07T11:48:38;28.80;8.60
16271;DHT22;8243;49.048;8.396;2023-05-07T11:51:05;28.90;8.00
16271;DHT22;8243;49.048;8.396;2023-05-07T11:53:43;29.30;7.00
16271;DHT22;8243;49.048;8.396;2023-05-07T11:56:10;29.30;7.20
16271;DHT22;8243;49.048;8.396;2023-05-07T11:58:37;29.60;6.50
16271;DHT22;8243;49.048;8.396;2023-05-07T12:01:03;30.20;6.30
16271;DHT22;8243;49.048;8.396;2023-05-07T12:03:28;30.00;6.20
16271;DHT22;8243;49.048;8.396;2023-05-07T12:05:54;29.60;6.00
16271;DHT22;8243;49.048;8.396;2023-05-07T12:08:21;29.60;6.00
16271;DHT22;8243;49.048;8.396;2023-05-07T12:10:49;29.70;5.20
16271;DHT22;8243;49.048;8.396;2023-05-07T12:13:23;29.30;5.80
16271;DHT22;8243;49.048;8.396;2023-05-07T12:15:53;29.00;6.60
16271;DHT22;8243;49.048;8.396;2023-05-07T12:18:20;29.10;6.60
16271;DHT22;8243;49.048;8.396;2023-05-07T12:20:47;29.00;6.50
16271;DHT22;8243;49.048;8.396;2023-05-07T12:23:14;29.10;7.50
16271;DHT22;8243;49.048;8.396;2023-05-07T12:25:42;29.40;6.90
16271;DHT22;8243;49.048;8.396;2023-05-07T12:28:15;30.00;6.00
16271;DHT22;8243;49.048;8.396;2023-05-07T12:30:43;29.50;6.50
16271;DHT22;8243;49.048;8.396;2023-05-07T12:33:11;30.00;6.40
16271;DHT22;8243;49.048;8.396;2023-05-07T12:35:42;29.90;6.40
16271;DHT22;8243;49.048;8.396;2023-05-07T12:38:09;29.50;6.30
16271;DHT22;8243;49.048;8.396;2023-05-07T12:40:40;29.60;7.40
16271;DHT22;8243;49.048;8.396;2023-05-07T12:43:06;29.50;6.60
16271;DHT22;8243;49.048;8.396;2023-05-07T12:45:31;29.10;7.00
16271;DHT22;8243;49.048;8.396;2023-05-07T12:48:02;29.40;6.80
16271;DHT22;8243;49.048;8.396;2023-05-07T12:50:31;29.30;6.50
16271;DHT22;8243;49.048;8.396;2023-05-07T12:52:58;29.30;7.30
16271;DHT22;8243;49.048;8.396;2023-05-07T12:55:24;29.20;6.50
16271;DHT22;8243;49.048;8.396;2023-05-07T12:57:50;29.20;6.70
16271;DHT22;8243;49.048;8.396;2023-05-07T13:00:17;29.10;7.30
16271;DHT22;8243;49.048;8.396;2023-05-07T13:02:44;29.00;6.70
16271;DHT22;8243;49.048;8.396;2023-05-07T13:05:10;29.10;7.00
16271;DHT22;8243;49.048;8.396;2023-05-07T13:07:36;29.20;6.90
16271;DHT22;8243;49.048;8.396;2023-05-07T13:10:03;29.20;7.20
16271;DHT22;8243;49.048;8.396;2023-05-07T13:12:29;28.80;7.10
16271;DHT22;8243;49.048;8.396;2023-05-07T13:14:55;28.70;6.60
16271;DHT22;8243;49.048;8.396;2023-05-07T13:17:20;28.90;6.60
16271;DHT22;8243;49.048;8.396;2023-05-07T13:19:46;29.10;6.70
16271;DHT22;8243;49.048;8.396;2023-05-07T13:22:12;29.30;6.50
16271;DHT22;8243;49.048;8.396;2023-05-07T13:24:37;29.40;6.40
16271;DHT22;8243;49.048;8.396;2023-05-07T13:27:03;29.70;5.30
16271;DHT22;8243;49.048;8.396;2023-05-07T13:29:29;29.80;4.70
16271;DHT22;8243;49.048;8.396;2023-05-07T13:31:59;30.10;5.10
16271;DHT22;8243;49.048;8.396;2023-05-07T13:34:25;29.50;6.20
16271;DHT22;8243;49.048;8.396;2023-05-07T13:36:51;29.10;7.00
16271;DHT22;8243;49.048;8.396;2023-05-07T13:39:17;28.90;7.60
16271;DHT22;8243;49.048;8.396;2023-05-07T13:41:43;28.70;8.10
16271;DHT22;8243;49.048;8.396;2023-05-07T13:44:08;28.60;8.90
16271;DHT22;8243;49.048;8.396;2023-05-07T13:46:34;28.20;8.80
16271;DHT22;8243;49.048;8.396;2023-05-07T13:49:00;28.00;9.40
16271;DHT22;8243;49.048;8.396;2023-05-07T13:51:26;28.30;8.90
16271;DHT22;8243;49.048;8.396;2023-05-07T13:53:52;28.40;9.90
16271;DHT22;8243;49.048;8.396;2023-05-07T13:56:20;28.60;9.90
16271;DHT22;8243;49.048;8.396;2023-05-07T13:58:46;28.50;9.30
16271;DHT22;8243;49.048;8.396;2023-05-07T14:01:12;28.50;8.90
16271;DHT22;8243;49.048;8.396;2023-05-07T14:03:37;28.80;8.40
16271;DHT22;8243;49.048;8.396;2023-05-07T14:06:05;28.60;8.40
16271;DHT22;8243;49.048;8.396;2023-05-07T14:08:31;27.90;8.90
16271;DHT22;8243;49.048;8.396;2023-05-07T14:10:56;27.60;9.10
16271;DHT22;8243;49.048;8.396;2023-05-07T14:13:22;27.10;9.20
16271;DHT22;8243;49.048;8.396;2023-05-07T14:15:48;26.70;10.20
16271;DHT22;8243;49.048;8.396;2023-05-07T14:18:15;26.40;10.20
16271;DHT22;8243;49.048;8.396;2023-05-07T14:20:41;26.20;10.60
16271;DHT22;8243;49.048;8.396;2023-05-07T14:23:09;26.20;11.00
16271;DHT22;8243;49.048;8.396;2023-05-07T14:25:34;26.00;12.80
16271;DHT22;8243;49.048;8.396;2023-05-07T14:28:00;25.80;13.60
16271;DHT22;8243;49.048;8.396;2023-05-07T14:30:26;25.80;14.30
16271;DHT22;8243;49.048;8.396;2023-05-07T14:32:51;25.60;14.70
16271;DHT22;8243;49.048;8.396;2023-05-07T14:35:17;25.60;15.40
16271;DHT22;8243;49.048;8.396;2023-05-07T14:37:43;25.70;14.30
16271;DHT22;8243;49.048;8.396;2023-05-07T14:40:09;25.60;14.60
16271;DHT22;8243;49.048;8.396;2023-05-07T14:42:35;25.60;14.20
16271;DHT22;8243;49.048;8.396;2023-05-07T14:45:01;25.40;13.80
16271;DHT22;8243;49.048;8.396;2023-05-07T14:47:27;25.30;14.30
16271;DHT22;8243;49.048;8.396;2023-05-07T14:49:53;25.10;14.60
16271;DHT22;8243;49.048;8.396;2023-05-07T14:52:19;25.00;15.00
16271;DHT22;8243;49.048;8.396;2023-05-07T14:54:45;25.00;14.70
16271;DHT22;8243;49.048;8.396;2023-05-07T14:57:11;24.90;14.40
16271;DHT22;8243;49.048;8.396;2023-05-07T14:59:39;24.90;13.80
16271;DHT22;8243;49.048;8.396;2023-05-07T15:02:05;24.60;13.60
16271;DHT22;8243;49.048;8.396;2023-05-07T15:04:33;24.60;13.60
16271;DHT22;8243;49.048;8.396;2023-05-07T15:06:59;24.40;12.30
16271;DHT22;8243;49.048;8.396;2023-05-07T15:09:25;24.40;12.60
16271;DHT22;8243;49.048;8.396;2023-05-07T15:11:51;24.40;12.90
16271;DHT22;8243;49.048;8.396;2023-05-07T15:14:17;24.40;13.20
16271;DHT22;8243;49.048;8.396;2023-05-07T15:16:43;24.40;13.40
16271;DHT22;8243;49.048;8.396;2023-05-07T15:19:09;24.40;13.40
16271;DHT22;8243;49.048;8.396;2023-05-07T15:21:34;24.60;13.60
16271;DHT22;8243;49.048;8.396;2023-05-07T15:24:02;24.70;13.70
16271;DHT22;8243;49.048;8.396;2023-05-07T15:26:27;24.60;14.40
16271;DHT22;8243;49.048;8.396;2023-05-07T15:28:53;24.60;14.80
16271;DHT22;8243;49.048;8.396;2023-05-07T15:31:21;24.70;14.80
16271;DHT22;8243;49.048;8.396;2023-05-07T15:33:47;24.70;15.90
16271;DHT22;8243;49.048;8.396;2023-05-07T15:36:13;24.80;17.00
16271;DHT22;8243;49.048;8.396;2023-05-07T15:38:39;24.50;17.20
16271;DHT22;8243;49.048;8.396;2023-05-07T15:41:06;23.30;19.10
16271;DHT22;8243;49.048;8.396;2023-05-07T15:43:31;21.90;24.40
16271;DHT22;8243;49.048;8.396;2023-05-07T15:45:57;21.20;29.70
16271;DHT22;8243;49.048;8.396;2023-05-07T15:48:22;21.00;33.30
16271;DHT22;8243;49.048;8.396;2023-05-07T15:50:48;20.50;37.30
16271;DHT22;8243;49.048;8.396;2023-05-07T15:53:13;20.30;40.50
16271;DHT22;8243;49.048;8.396;2023-05-07T15:55:40;20.10;43.20
16271;DHT22;8243;49.048;8.396;2023-05-07T15:58:07;20.10;43.70
16271;DHT22;8243;49.048;8.396;2023-05-07T16:00:33;20.10;43.80
16271;DHT22;8243;49.048;8.396;2023-05-07T16:03:00;20.10;44.70
16271;DHT22;8243;49.048;8.396;2023-05-07T16:05:26;19.90;45.50
16271;DHT22;8243;49.048;8.396;2023-05-07T16:07:52;19.30;51.30